createdAt,value
2023-04-15T00:00:04.335Z,3.30
2023-04-15T00:02:41.241Z,2.85
2023-04-15T00:05:11.223Z,3.10
2023-04-15T00:07:39.069Z,2.80
2023-04-15T00:10:08.207Z,3.20
2023-04-15T00:12:36.478Z,2.97
2023-04-15T00:15:05.246Z,3.20
2023-04-15T00:17:33.320Z,3.30
2023-04-15T00:20:01.546Z,2.70
2023-04-15T00:22:30.822Z,2.88
2023-04-15T00:24:59.082Z,2.90
2023-04-15T00:27:27.033Z,2.90
2023-04-15T00:29:55.022Z,2.88
2023-04-15T00:32:23.527Z,2.83
2023-04-15T00:34:51.669Z,2.70
2023-04-15T00:37:20.197Z,2.83
2023-04-15T00:39:50.447Z,2.70
2023-04-15T00:42:20.151Z,3.00
2023-04-15T00:44:51.058Z,3.23
2023-04-15T00:47:20.262Z,3.38
2023-04-15T00:49:48.122Z,3.17
2023-04-15T00:52:16.366Z,3.00
2023-04-15T00:54:44.239Z,3.00
2023-04-15T00:57:13.555Z,2.97
2023-04-15T00:59:41.509Z,3.20
2023-04-15T01:02:09.539Z,2.90
2023-04-15T01:04:37.744Z,3.00
2023-04-15T01:07:05.632Z,3.50
2023-04-15T01:09:33.850Z,3.27
2023-04-15T01:12:02.610Z,3.08
2023-04-15T01:14:33.113Z,2.95
2023-04-15T01:17:01.177Z,2.88
2023-04-15T01:19:29.644Z,3.00
2023-04-15T01:21:57.727Z,3.10
2023-04-15T01:24:28.154Z,2.95
2023-04-15T01:26:57.545Z,3.30
2023-04-15T01:29:25.764Z,2.72
2023-04-15T01:31:55.110Z,3.25
2023-04-15T01:34:23.624Z,2.83
2023-04-15T01:36:55.209Z,2.85
2023-04-15T01:39:23.464Z,3.30
2023-04-15T01:41:51.295Z,3.15
2023-04-15T01:44:20.460Z,3.10
2023-04-15T01:46:48.397Z,3.40
2023-04-15T01:49:17.008Z,3.45
2023-04-15T01:51:45.135Z,3.20
2023-04-15T01:54:14.385Z,3.33
2023-04-15T01:56:42.208Z,3.00
2023-04-15T01:59:10.887Z,3.33
2023-04-15T02:01:41.023Z,3.50
2023-04-15T02:04:16.467Z,3.63
2023-04-15T02:06:44.703Z,3.63
2023-04-15T02:09:13.426Z,3.00
2023-04-15T02:11:41.298Z,3.40
2023-04-15T02:14:09.493Z,3.85
2023-04-15T02:16:37.435Z,3.42
2023-04-15T02:19:06.705Z,3.35
2023-04-15T02:21:35.426Z,3.88
2023-04-15T02:24:04.394Z,3.80
2023-04-15T02:26:33.525Z,3.80
2023-04-15T02:29:01.633Z,3.85
2023-04-15T02:31:29.839Z,3.47
2023-04-15T02:33:57.909Z,4.10
2023-04-15T02:36:27.154Z,3.40
2023-04-15T02:38:55.064Z,3.95
2023-04-15T02:41:27.274Z,4.28
2023-04-15T02:43:55.403Z,3.63
2023-04-15T02:46:23.710Z,3.75
2023-04-15T02:48:53.306Z,4.27
2023-04-15T02:51:23.584Z,4.00
2023-04-15T02:53:52.972Z,3.83
2023-04-15T02:56:21.907Z,3.78
2023-04-15T02:58:50.824Z,3.75
2023-04-15T03:01:20.508Z,3.70
2023-04-15T03:03:48.947Z,3.88
2023-04-15T03:06:17.064Z,3.90
2023-04-15T03:08:45.246Z,3.88
2023-04-15T03:11:16.216Z,4.00
2023-04-15T03:13:44.677Z,4.13
2023-04-15T03:16:23.976Z,4.10
2023-04-15T03:18:52.578Z,4.25
2023-04-15T03:21:22.286Z,3.95
2023-04-15T03:23:50.430Z,3.72
2023-04-15T03:26:28.255Z,4.17
2023-04-15T03:28:59.755Z,3.75
2023-04-15T03:31:28.178Z,4.15
2023-04-15T03:33:56.063Z,4.50
2023-04-15T03:36:24.905Z,4.28
2023-04-15T03:38:53.045Z,4.40
2023-04-15T03:41:21.100Z,4.03
2023-04-15T03:43:52.065Z,4.25
2023-04-15T03:46:20.109Z,4.03
2023-04-15T03:48:48.262Z,4.38
2023-04-15T03:51:16.199Z,4.20
2023-04-15T03:53:44.047Z,4.78
2023-04-15T03:56:12.265Z,3.67
2023-04-15T03:58:40.282Z,5.20
2023-04-15T04:01:09.499Z,4.10
2023-04-15T04:03:37.968Z,4.20
2023-04-15T04:06:06.204Z,4.50
2023-04-15T04:08:34.652Z,4.40
2023-04-15T04:11:02.672Z,4.65
2023-04-15T04:13:30.570Z,4.85
2023-04-15T04:15:58.539Z,4.73
2023-04-15T04:18:27.998Z,4.60
2023-04-15T04:20:56.479Z,4.85
2023-04-15T04:23:24.409Z,4.10
2023-04-15T04:25:52.665Z,4.68
2023-04-15T04:28:20.612Z,4.67
2023-04-15T04:30:48.718Z,4.80
2023-04-15T04:33:16.658Z,4.90
2023-04-15T04:35:46.056Z,4.57
2023-04-15T04:38:13.994Z,5.00
2023-04-15T04:40:42.034Z,4.57
2023-04-15T04:43:10.074Z,4.85
2023-04-15T04:45:37.968Z,4.38
2023-04-15T04:48:07.207Z,5.22
2023-04-15T04:50:35.422Z,4.70
2023-04-15T04:53:04.612Z,5.23
2023-04-15T04:55:33.246Z,5.72
2023-04-15T04:58:01.334Z,5.10
2023-04-15T05:00:29.746Z,4.90
2023-04-15T05:02:58.759Z,5.72
2023-04-15T05:05:27.156Z,5.83
2023-04-15T05:07:55.344Z,5.50
2023-04-15T05:10:24.933Z,5.78
2023-04-15T05:12:52.970Z,5.63
2023-04-15T05:15:21.150Z,5.07
2023-04-15T05:17:49.230Z,5.97
2023-04-15T05:20:17.520Z,5.70
2023-04-15T05:22:45.620Z,5.30
2023-04-15T05:25:13.743Z,5.60
2023-04-15T05:27:43.237Z,5.05
2023-04-15T05:30:13.436Z,5.47
2023-04-15T05:32:41.894Z,5.18
2023-04-15T05:35:09.997Z,6.18
2023-04-15T05:37:37.919Z,5.30
2023-04-15T05:40:06.474Z,5.65
2023-04-15T05:42:34.546Z,6.10
2023-04-15T05:45:05.547Z,6.20
2023-04-15T05:47:33.797Z,5.70
2023-04-15T05:50:01.767Z,5.72
2023-04-15T05:52:29.717Z,6.25
2023-04-15T05:54:57.633Z,6.23
2023-04-15T05:57:25.951Z,5.75
2023-04-15T05:59:54.044Z,6.20
2023-04-15T06:02:23.952Z,5.53
2023-04-15T06:04:52.488Z,6.68
2023-04-15T06:07:20.596Z,6.13
2023-04-15T06:09:48.619Z,6.03
2023-04-15T06:12:17.093Z,6.07
2023-04-15T06:14:45.086Z,6.75
2023-04-15T06:17:15.018Z,7.07
2023-04-15T06:19:44.294Z,7.03
2023-04-15T06:22:12.174Z,6.47
2023-04-15T06:24:40.030Z,7.03
2023-04-15T06:27:08.447Z,6.97
2023-04-15T06:29:36.377Z,7.10
2023-04-15T06:32:04.229Z,6.70
2023-04-15T06:34:32.128Z,7.07
2023-04-15T06:37:01.663Z,7.10
2023-04-15T06:39:30.170Z,7.03
2023-04-15T06:41:58.247Z,7.85
2023-04-15T06:44:26.272Z,7.37
2023-04-15T06:46:54.536Z,7.65
2023-04-15T06:49:22.423Z,7.60
2023-04-15T06:51:51.485Z,7.65
2023-04-15T06:54:20.864Z,7.00
2023-04-15T06:56:48.824Z,6.47
2023-04-15T06:59:16.670Z,6.60
2023-04-15T07:01:44.565Z,6.25
2023-04-15T07:04:12.854Z,5.65
2023-04-15T07:06:41.892Z,5.80
2023-04-15T07:09:09.824Z,5.80
2023-04-15T07:11:39.121Z,5.70
2023-04-15T07:14:07.482Z,5.15
2023-04-15T07:16:35.570Z,5.10
2023-04-15T07:19:04.275Z,4.97
2023-04-15T07:21:32.429Z,5.53
2023-04-15T07:24:00.439Z,4.35
2023-04-15T07:26:28.489Z,4.10
2023-04-15T07:28:57.809Z,4.78
2023-04-15T07:31:25.732Z,3.83
2023-04-15T07:33:53.559Z,3.40
2023-04-15T07:36:21.476Z,3.40
2023-04-15T07:38:49.379Z,3.67
2023-04-15T07:41:17.399Z,3.80
2023-04-15T07:43:45.672Z,3.47
2023-04-15T07:46:15.518Z,3.63
2023-04-15T07:48:43.893Z,3.45
2023-04-15T07:51:13.110Z,2.72
2023-04-15T07:53:41.155Z,2.97
2023-04-15T07:56:09.274Z,3.03
2023-04-15T07:58:37.256Z,3.10
2023-04-15T08:01:06.543Z,3.28
2023-04-15T08:03:36.017Z,3.53
2023-04-15T08:06:04.585Z,3.00
2023-04-15T08:08:32.767Z,3.60
2023-04-15T08:11:03.968Z,3.00
2023-04-15T08:13:32.091Z,2.80
2023-04-15T08:16:19.995Z,3.00
2023-04-15T08:18:50.584Z,2.90
2023-04-15T08:21:19.783Z,2.88
2023-04-15T08:23:52.673Z,2.90
2023-04-15T08:26:21.679Z,3.03
2023-04-15T08:28:50.126Z,3.20
2023-04-15T08:31:19.831Z,3.08
2023-04-15T08:33:49.695Z,3.28
2023-04-15T08:36:17.802Z,2.97
2023-04-15T08:38:46.514Z,4.13
2023-04-15T08:41:22.543Z,3.50
2023-04-15T08:43:55.504Z,3.40
2023-04-15T08:46:24.050Z,3.08
2023-04-15T08:48:54.873Z,3.07
2023-04-15T08:51:24.908Z,3.25
2023-04-15T08:53:53.701Z,3.00
2023-04-15T08:56:26.470Z,3.05
2023-04-15T08:58:54.738Z,3.50
2023-04-15T09:01:23.548Z,3.30
2023-04-15T09:03:54.462Z,2.88
2023-04-15T09:06:23.207Z,3.50
2023-04-15T09:08:51.825Z,3.38
2023-04-15T09:11:20.464Z,3.15
2023-04-15T09:13:48.967Z,3.47
2023-04-15T09:16:16.877Z,3.42
2023-04-15T09:18:44.840Z,3.30
2023-04-15T09:21:16.273Z,3.35
2023-04-15T09:23:57.515Z,3.70
2023-04-15T09:26:36.842Z,3.30
2023-04-15T09:29:09.353Z,3.55
2023-04-15T09:31:37.876Z,3.88
2023-04-15T09:34:05.954Z,3.20
2023-04-15T09:36:52.706Z,3.05
2023-04-15T09:39:20.819Z,3.60
2023-04-15T09:41:48.672Z,3.40
2023-04-15T09:44:26.036Z,2.90
2023-04-15T09:46:54.101Z,3.40
2023-04-15T09:49:22.273Z,4.15
2023-04-15T09:52:04.594Z,3.90
2023-04-15T09:54:36.613Z,3.88
2023-04-15T09:57:09.865Z,3.83
2023-04-15T09:59:37.886Z,3.58
2023-04-15T10:02:07.814Z,2.70
2023-04-15T10:04:37.804Z,2.93
2023-04-15T10:07:07.737Z,2.60
2023-04-15T10:09:37.422Z,2.10
2023-04-15T10:12:06.495Z,2.60
2023-04-15T10:14:36.474Z,2.03
2023-04-15T10:17:06.041Z,1.93
2023-04-15T10:19:37.599Z,1.80
2023-04-15T10:22:07.842Z,1.80
2023-04-15T10:24:36.445Z,1.40
2023-04-15T10:27:05.535Z,1.58
2023-04-15T10:29:33.474Z,1.50
2023-04-15T10:32:02.506Z,1.50
2023-04-15T10:34:31.196Z,1.52
2023-04-15T10:37:04.575Z,1.60
2023-04-15T10:39:44.613Z,1.98
2023-04-15T10:42:13.871Z,1.83
2023-04-15T10:44:44.613Z,1.63
2023-04-15T10:47:14.196Z,1.80
2023-04-15T10:49:46.709Z,2.30
2023-04-15T10:52:16.593Z,2.83
2023-04-15T10:54:46.120Z,2.13
2023-04-15T10:57:22.517Z,2.13
2023-04-15T11:00:13.829Z,1.90
2023-04-15T11:02:45.130Z,1.75
2023-04-15T11:05:13.898Z,2.08
2023-04-15T11:07:49.759Z,2.10
2023-04-15T11:10:51.544Z,1.60
2023-04-15T11:13:23.550Z,1.90
2023-04-15T11:15:51.993Z,2.22
2023-04-15T11:18:22.188Z,1.98
2023-04-15T11:20:51.807Z,2.50
2023-04-15T11:23:20.615Z,1.80
2023-04-15T11:25:48.713Z,1.98
2023-04-15T11:28:16.769Z,2.22
2023-04-15T11:30:45.931Z,2.13
2023-04-15T11:33:14.113Z,1.90
2023-04-15T11:35:43.115Z,2.17
2023-04-15T11:38:13.892Z,1.90
2023-04-15T11:40:46.172Z,2.60
2023-04-15T11:43:15.883Z,1.90
2023-04-15T11:45:53.876Z,1.80
2023-04-15T11:48:25.711Z,1.80
2023-04-15T11:50:58.272Z,1.85
2023-04-15T11:53:41.000Z,1.92
2023-04-15T11:56:10.845Z,1.80
2023-04-15T11:58:40.139Z,2.10
2023-04-15T12:01:09.605Z,2.42
2023-04-15T12:03:42.513Z,1.90
2023-04-15T12:06:19.001Z,1.95
2023-04-15T12:08:55.223Z,1.90
2023-04-15T12:11:30.408Z,2.00
2023-04-15T12:14:01.050Z,1.95
2023-04-15T12:16:31.135Z,1.70
2023-04-15T12:19:00.632Z,1.98
2023-04-15T12:21:34.568Z,1.90
2023-04-15T12:24:04.826Z,1.90
2023-04-15T12:26:36.140Z,1.80
2023-04-15T12:29:05.030Z,1.98
2023-04-15T12:31:34.892Z,1.63
2023-04-15T12:34:03.484Z,1.60
2023-04-15T12:36:36.236Z,1.50
2023-04-15T12:39:05.227Z,1.60
2023-04-15T12:41:33.168Z,1.70
2023-04-15T12:44:01.472Z,1.60
2023-04-15T12:46:29.877Z,1.67
2023-04-15T12:48:59.316Z,1.87
2023-04-15T12:51:28.445Z,1.95
2023-04-15T12:53:56.327Z,1.73
2023-04-15T12:56:24.191Z,1.83
2023-04-15T12:58:52.550Z,1.48
2023-04-15T13:01:20.593Z,1.37
2023-04-15T13:03:50.467Z,1.55
2023-04-15T13:06:19.779Z,1.30
2023-04-15T13:08:57.448Z,1.33
2023-04-15T13:11:26.514Z,1.20
2023-04-15T13:13:54.356Z,0.83
2023-04-15T13:16:22.412Z,1.00
2023-04-15T13:18:50.652Z,1.10
2023-04-15T13:21:20.464Z,1.00
2023-04-15T13:23:52.318Z,1.00
2023-04-15T13:26:20.434Z,1.23
2023-04-15T13:28:48.405Z,1.48
2023-04-15T13:31:16.374Z,1.50
2023-04-15T13:33:44.243Z,1.30
2023-04-15T13:36:12.437Z,1.40
2023-04-15T13:38:41.707Z,0.97
2023-04-15T13:41:09.908Z,1.42
2023-04-15T13:43:41.038Z,1.50
2023-04-15T13:46:09.154Z,1.45
2023-04-15T13:48:37.096Z,2.00
2023-04-15T13:51:05.171Z,1.70
2023-04-15T13:53:38.458Z,1.45
2023-04-15T13:56:09.422Z,1.55
2023-04-15T13:58:37.710Z,1.40
2023-04-15T14:01:06.981Z,1.60
2023-04-15T14:03:36.901Z,1.57
2023-04-15T14:06:06.726Z,1.45
2023-04-15T14:08:35.000Z,1.30
2023-04-15T14:11:02.946Z,1.30
2023-04-15T14:13:32.149Z,1.10
2023-04-15T14:16:00.050Z,1.20
2023-04-15T14:18:28.297Z,1.83
2023-04-15T14:20:56.200Z,1.52
2023-04-15T14:23:24.438Z,1.20
2023-04-15T14:25:52.778Z,1.20
2023-04-15T14:28:20.667Z,0.93
2023-04-15T14:30:49.993Z,1.70
2023-04-15T14:33:18.166Z,1.10
2023-04-15T14:35:46.367Z,1.13
2023-04-15T14:38:14.176Z,1.10
2023-04-15T14:40:42.591Z,0.90
2023-04-15T14:43:10.539Z,1.55
2023-04-15T14:45:41.886Z,1.20
2023-04-15T14:48:12.987Z,1.00
2023-04-15T14:50:41.614Z,1.20
2023-04-15T14:53:09.470Z,1.20
2023-04-15T14:55:37.284Z,1.40
2023-04-15T14:58:05.130Z,1.35
2023-04-15T15:00:33.038Z,1.50
2023-04-15T15:03:01.709Z,1.10
2023-04-15T15:05:31.283Z,0.97
2023-04-15T15:07:59.407Z,1.30
2023-04-15T15:10:44.128Z,1.05
2023-04-15T15:13:18.012Z,1.00
2023-04-15T15:15:50.819Z,1.10
2023-04-15T15:18:19.889Z,1.00
2023-04-15T15:20:50.781Z,1.10
2023-04-15T15:23:19.425Z,1.50
2023-04-15T15:25:50.182Z,1.25
2023-04-15T15:28:19.916Z,0.90
2023-04-15T15:30:48.389Z,0.80
2023-04-15T15:33:18.100Z,0.80
2023-04-15T15:35:46.440Z,0.90
2023-04-15T15:38:19.566Z,1.20
2023-04-15T15:40:48.172Z,1.20
2023-04-15T15:43:16.493Z,1.00
2023-04-15T15:45:44.961Z,0.85
2023-04-15T15:48:12.979Z,1.30
2023-04-15T15:50:40.936Z,1.08
2023-04-15T15:53:12.429Z,0.80
2023-04-15T15:55:41.858Z,1.00
2023-04-15T15:58:11.569Z,0.90
2023-04-15T16:00:42.617Z,0.90
2023-04-15T16:03:10.722Z,0.70
2023-04-15T16:05:42.702Z,0.80
2023-04-15T16:08:10.865Z,0.90
2023-04-15T16:10:39.289Z,0.65
2023-04-15T16:13:08.771Z,0.82
2023-04-15T16:15:36.729Z,0.90
2023-04-15T16:18:04.908Z,1.20
2023-04-15T16:20:32.915Z,0.97
2023-04-15T16:23:01.977Z,0.90
2023-04-15T16:25:30.109Z,1.17
2023-04-15T16:28:05.584Z,0.88
2023-04-15T16:30:38.837Z,1.00
2023-04-15T16:33:07.780Z,0.73
2023-04-15T16:35:35.810Z,0.85
2023-04-15T16:38:04.053Z,0.88
2023-04-15T16:40:32.908Z,1.10
2023-04-15T16:43:01.117Z,1.17
2023-04-15T16:45:29.216Z,0.80
2023-04-15T16:47:58.725Z,0.73
2023-04-15T16:50:27.302Z,0.98
2023-04-15T16:52:56.021Z,0.90
2023-04-15T16:55:24.139Z,0.82
2023-04-15T16:58:02.418Z,0.57
2023-04-15T17:00:32.236Z,1.15
2023-04-15T17:03:02.033Z,0.70
2023-04-15T17:05:30.660Z,1.15
2023-04-15T17:07:58.866Z,1.50
2023-04-15T17:10:27.144Z,0.80
2023-04-15T17:12:57.043Z,0.77
2023-04-15T17:15:25.528Z,1.00
2023-04-15T17:17:53.633Z,0.93
2023-04-15T17:20:23.294Z,0.90
2023-04-15T17:22:51.295Z,1.17
2023-04-15T17:25:19.519Z,1.30
2023-04-15T17:27:47.509Z,1.17
2023-04-15T17:30:15.818Z,0.98
2023-04-15T17:32:43.692Z,1.23
2023-04-15T17:35:11.745Z,1.10
2023-04-15T17:37:41.509Z,1.05
2023-04-15T17:40:10.372Z,1.48
2023-04-15T17:42:38.129Z,0.65
2023-04-15T17:45:07.262Z,0.80
2023-04-15T17:47:35.227Z,1.10
2023-04-15T17:50:03.388Z,0.77
2023-04-15T17:52:31.248Z,0.90
2023-04-15T17:55:01.064Z,0.88
2023-04-15T17:57:31.449Z,0.93
2023-04-15T17:59:59.968Z,1.10
2023-04-15T18:02:28.488Z,1.40
2023-04-15T18:04:56.766Z,0.90
2023-04-15T18:07:26.088Z,0.93
2023-04-15T18:09:55.980Z,0.98
2023-04-15T18:12:26.838Z,0.70
2023-04-15T18:14:57.542Z,0.88
2023-04-15T18:17:25.879Z,0.80
2023-04-15T18:19:54.246Z,0.60
2023-04-15T18:22:22.350Z,0.60
2023-04-15T18:24:51.344Z,0.93
2023-04-15T18:27:19.436Z,0.90
2023-04-15T18:29:49.036Z,1.00
2023-04-15T18:32:18.757Z,1.00
2023-04-15T18:34:47.282Z,0.60
2023-04-15T18:37:16.635Z,0.53
2023-04-15T18:39:47.346Z,0.70
2023-04-15T18:42:15.888Z,0.82
2023-04-15T18:44:45.627Z,0.88
2023-04-15T18:47:16.274Z,0.77
2023-04-15T18:49:45.277Z,0.70
2023-04-15T18:52:26.320Z,0.77
2023-04-15T18:54:57.310Z,0.77
2023-04-15T18:57:31.355Z,0.80
2023-04-15T19:00:03.163Z,0.77
2023-04-15T19:02:32.740Z,0.63
2023-04-15T19:05:03.709Z,0.98
2023-04-15T19:07:32.290Z,0.70
2023-04-15T19:10:04.074Z,0.80
2023-04-15T19:12:32.125Z,1.08
2023-04-15T19:15:01.231Z,1.07
2023-04-15T19:17:29.442Z,0.80
2023-04-15T19:19:58.726Z,0.60
2023-04-15T19:22:27.267Z,0.70
2023-04-15T19:24:55.468Z,0.90
2023-04-15T19:27:23.680Z,0.67
2023-04-15T19:29:52.126Z,0.70
2023-04-15T19:32:21.629Z,0.60
2023-04-15T19:34:51.438Z,1.20
2023-04-15T19:37:21.303Z,0.90
2023-04-15T19:39:52.270Z,0.90
2023-04-15T19:42:21.444Z,1.00
2023-04-15T19:44:49.558Z,0.70
2023-04-15T19:47:18.375Z,0.77
2023-04-15T19:49:47.967Z,0.70
2023-04-15T19:52:16.958Z,0.80
2023-04-15T19:54:48.412Z,0.80
2023-04-15T19:57:16.617Z,0.85
2023-04-15T19:59:44.465Z,0.95
2023-04-15T20:02:13.559Z,0.60
2023-04-15T20:04:42.128Z,0.73
2023-04-15T20:07:10.985Z,1.10
2023-04-15T20:09:39.189Z,0.80
2023-04-15T20:12:48.638Z,1.35
2023-04-15T20:14:56.920Z,0.80
2023-04-15T20:17:25.534Z,0.90
2023-04-15T20:19:54.988Z,1.02
2023-04-15T20:22:23.058Z,0.80
2023-04-15T20:24:51.129Z,0.88
2023-04-15T20:27:21.920Z,0.82
2023-04-15T20:29:50.543Z,0.80
2023-04-15T20:32:19.075Z,0.80
2023-04-15T20:34:50.591Z,0.90
2023-04-15T20:37:19.042Z,1.23
2023-04-15T20:39:47.259Z,1.00
2023-04-15T20:42:16.497Z,1.07
2023-04-15T20:44:45.852Z,1.00
2023-04-15T20:47:15.315Z,1.00
2023-04-15T20:49:44.301Z,1.10
2023-04-15T20:52:15.722Z,1.40
2023-04-15T20:54:43.698Z,1.10
2023-04-15T20:57:11.523Z,1.17
2023-04-15T20:59:39.444Z,1.52
2023-04-15T21:02:08.865Z,1.17
2023-04-15T21:04:37.994Z,1.63
2023-04-15T21:07:08.896Z,1.10
2023-04-15T21:09:38.435Z,0.90
2023-04-15T21:12:06.544Z,1.20
2023-04-15T21:14:34.975Z,1.45
2023-04-15T21:17:10.017Z,1.67
2023-04-15T21:19:40.469Z,1.47
2023-04-15T21:22:09.923Z,1.35
2023-04-15T21:24:37.852Z,1.35
2023-04-15T21:27:05.925Z,1.55
2023-04-15T21:29:33.838Z,1.45
2023-04-15T21:32:01.755Z,1.67
2023-04-15T21:34:29.681Z,1.25
2023-04-15T21:36:58.880Z,1.45
2023-04-15T21:39:26.898Z,1.40
2023-04-15T21:41:54.914Z,1.77
2023-04-15T21:44:22.836Z,1.33
2023-04-15T21:46:51.764Z,1.17
2023-04-15T21:49:20.281Z,1.35
2023-04-15T21:51:51.159Z,1.75
2023-04-15T21:54:20.548Z,1.30
2023-04-15T21:56:49.823Z,1.40
2023-04-15T21:59:17.614Z,1.30
2023-04-15T22:01:45.610Z,1.58
2023-04-15T22:04:13.845Z,1.05
2023-04-15T22:06:41.958Z,1.17
2023-04-15T22:09:11.417Z,1.43
2023-04-15T22:11:42.798Z,1.15
2023-04-15T22:14:10.905Z,1.00
2023-04-15T22:16:38.859Z,1.50
2023-04-15T22:19:06.987Z,1.42
2023-04-15T22:21:35.324Z,1.30
2023-04-15T22:24:38.671Z,2.15
2023-04-15T22:26:52.750Z,1.52
2023-04-15T22:29:20.903Z,1.23
2023-04-15T22:31:49.072Z,1.83
2023-04-15T22:34:22.819Z,2.30
2023-04-15T22:36:51.732Z,1.40
2023-04-15T22:39:20.476Z,1.40
2023-04-15T22:41:48.638Z,1.83
2023-04-15T22:44:18.028Z,1.95
2023-04-15T22:46:45.870Z,2.03
2023-04-15T22:49:13.625Z,2.15
2023-04-15T22:51:41.541Z,2.60
2023-04-15T22:54:09.518Z,2.20
2023-04-15T22:56:37.532Z,2.25
2023-04-15T22:59:05.492Z,2.40
2023-04-15T23:01:34.776Z,2.35
2023-04-15T23:04:08.597Z,2.53
2023-04-15T23:06:50.873Z,2.63
2023-04-15T23:09:18.886Z,2.55
2023-04-15T23:11:46.853Z,2.30
2023-04-15T23:14:14.697Z,2.60
2023-04-15T23:16:45.508Z,3.10
2023-04-15T23:19:13.360Z,2.90
2023-04-15T23:21:41.357Z,3.00
2023-04-15T23:24:09.825Z,3.13
2023-04-15T23:26:37.659Z,3.05
2023-04-15T23:29:05.550Z,2.60
2023-04-15T23:31:33.401Z,3.63
2023-04-15T23:34:03.245Z,3.45
2023-04-15T23:36:31.957Z,3.17
2023-04-15T23:38:59.944Z,3.33
2023-04-15T23:41:27.971Z,3.55
2023-04-15T23:43:58.692Z,3.72
2023-04-15T23:46:27.231Z,3.25
2023-04-15T23:48:55.718Z,3.43
2023-04-15T23:51:27.494Z,3.42
2023-04-15T23:53:55.466Z,3.72
2023-04-15T23:56:23.671Z,3.75
2023-04-15T23:58:51.859Z,3.28
